createdAt,value
2022-11-12T00:00:02.814Z,83.17
2022-11-12T00:01:05.263Z,88.27
2022-11-12T00:02:07.691Z,85.42
2022-11-12T00:03:10.117Z,90.26
2022-11-12T00:04:12.473Z,81.96
2022-11-12T00:05:14.931Z,84.23
2022-11-12T00:06:17.589Z,94.57
2022-11-12T00:07:19.982Z,90.95
2022-11-12T00:08:22.349Z,74.11
2022-11-12T00:09:24.796Z,83.95
2022-11-12T00:10:27.354Z,85.38
2022-11-12T00:11:29.707Z,84.11
2022-11-12T00:12:32.101Z,80.93
2022-11-12T00:13:34.458Z,80.09
2022-11-12T00:14:36.813Z,81.49
2022-11-12T00:15:39.165Z,89.62
2022-11-12T00:16:41.845Z,82.92
2022-11-12T00:17:44.345Z,83.18
2022-11-12T00:18:46.708Z,84.10
2022-11-12T00:19:49.071Z,84.83
2022-11-12T00:20:51.623Z,78.75
2022-11-12T00:21:53.985Z,80.17
2022-11-12T00:22:56.480Z,87.25
2022-11-12T00:23:58.830Z,78.83
2022-11-12T00:25:01.288Z,80.58
2022-11-12T00:26:03.754Z,73.83
2022-11-12T00:27:06.212Z,64.90
2022-11-12T00:28:08.601Z,72.51
2022-11-12T00:29:10.962Z,83.67
2022-11-12T00:30:13.835Z,75.59
2022-11-12T00:31:16.193Z,67.19
2022-11-12T00:32:18.652Z,73.30
2022-11-12T00:33:21.162Z,73.12
2022-11-12T00:34:23.527Z,66.61
2022-11-12T00:35:25.990Z,71.43
2022-11-12T00:36:28.566Z,73.82
2022-11-12T00:37:31.052Z,71.34
2022-11-12T00:38:33.545Z,70.35
2022-11-12T00:39:36.018Z,66.37
2022-11-12T00:40:38.674Z,72.71
2022-11-12T00:41:41.038Z,71.63
2022-11-12T00:42:43.503Z,76.41
2022-11-12T00:43:46.012Z,70.09
2022-11-12T00:44:48.479Z,66.89
2022-11-12T00:45:50.844Z,67.56
2022-11-12T00:46:53.409Z,68.65
2022-11-12T00:47:55.770Z,66.35
2022-11-12T00:48:58.282Z,63.76
2022-11-12T00:50:00.742Z,59.74
2022-11-12T00:51:03.214Z,68.21
2022-11-12T00:52:05.660Z,71.83
2022-11-12T00:53:08.022Z,67.85
2022-11-12T00:54:10.440Z,66.11
2022-11-12T00:55:12.904Z,67.56
2022-11-12T00:56:15.914Z,68.19
2022-11-12T00:57:18.381Z,63.11
2022-11-12T00:58:20.842Z,62.58
2022-11-12T00:59:23.241Z,70.29
2022-11-12T01:00:25.799Z,68.01
2022-11-12T01:01:28.330Z,64.78
2022-11-12T01:02:31.055Z,57.39
2022-11-12T01:03:33.530Z,62.66
2022-11-12T01:04:36.015Z,60.03
2022-11-12T01:05:38.475Z,59.31
2022-11-12T01:06:41.075Z,66.27
2022-11-12T01:07:43.710Z,62.69
2022-11-12T01:08:46.087Z,61.65
2022-11-12T01:09:48.498Z,63.34
2022-11-12T01:10:51.153Z,60.23
2022-11-12T01:11:53.610Z,67.53
2022-11-12T01:12:55.973Z,56.73
2022-11-12T01:13:58.437Z,64.93
2022-11-12T01:15:00.943Z,64.60
2022-11-12T01:16:03.511Z,58.58
2022-11-12T01:17:05.973Z,62.25
2022-11-12T01:18:08.360Z,64.35
2022-11-12T01:19:10.838Z,54.71
2022-11-12T01:20:14.554Z,58.73
2022-11-12T01:21:16.926Z,59.35
2022-11-12T01:22:19.379Z,61.83
2022-11-12T01:23:21.743Z,57.22
2022-11-12T01:24:24.229Z,54.22
2022-11-12T01:25:26.731Z,55.95
2022-11-12T01:26:29.320Z,58.39
2022-11-12T01:27:31.808Z,49.93
2022-11-12T01:28:34.270Z,56.35
2022-11-12T01:29:36.729Z,54.35
2022-11-12T01:30:39.434Z,59.71
2022-11-12T01:31:41.791Z,53.13
2022-11-12T01:32:44.152Z,56.42
2022-11-12T01:33:46.514Z,58.45
2022-11-12T01:34:48.875Z,52.96
2022-11-12T01:35:51.272Z,52.29
2022-11-12T01:36:53.839Z,56.96
2022-11-12T01:37:56.302Z,56.92
2022-11-12T01:38:58.766Z,56.17
2022-11-12T01:40:01.128Z,55.41
2022-11-12T01:41:03.553Z,48.41
2022-11-12T01:42:06.187Z,47.04
2022-11-12T01:43:08.547Z,52.06
2022-11-12T01:44:11.013Z,52.41
2022-11-12T01:45:13.471Z,53.44
2022-11-12T01:46:16.382Z,57.20
2022-11-12T01:47:18.745Z,52.27
2022-11-12T01:48:21.108Z,45.77
2022-11-12T01:49:23.573Z,48.65
2022-11-12T01:50:26.170Z,50.49
2022-11-12T01:51:28.632Z,49.15
2022-11-12T01:52:30.994Z,54.33
2022-11-12T01:53:33.561Z,48.59
2022-11-12T01:54:36.025Z,49.54
2022-11-12T01:55:38.389Z,53.43
2022-11-12T01:56:42.602Z,45.07
2022-11-12T01:57:45.143Z,49.21
2022-11-12T01:58:47.605Z,49.79
2022-11-12T01:59:50.069Z,47.87
2022-11-12T02:00:52.886Z,51.79
2022-11-12T02:01:55.532Z,50.45
2022-11-12T02:02:57.999Z,54.05
2022-11-12T02:04:00.461Z,45.01
2022-11-12T02:05:02.922Z,50.34
2022-11-12T02:06:05.890Z,53.26
2022-11-12T02:07:08.457Z,48.90
2022-11-12T02:08:11.146Z,47.38
2022-11-12T02:09:13.638Z,46.05
2022-11-12T02:10:16.206Z,44.39
2022-11-12T02:11:18.684Z,50.15
2022-11-12T02:12:21.185Z,45.31
2022-11-12T02:13:23.651Z,45.45
2022-11-12T02:14:26.122Z,53.55
2022-11-12T02:15:28.579Z,47.77
2022-11-12T02:16:31.341Z,47.80
2022-11-12T02:17:33.829Z,60.28
2022-11-12T02:18:36.297Z,53.42
2022-11-12T02:19:38.758Z,51.52
2022-11-12T02:20:41.316Z,45.59
2022-11-12T02:21:43.777Z,50.23
2022-11-12T02:22:46.647Z,42.57
2022-11-12T02:23:49.106Z,46.39
2022-11-12T02:24:51.571Z,48.18
2022-11-12T02:25:54.125Z,39.84
2022-11-12T02:26:56.815Z,47.44
2022-11-12T02:27:59.288Z,43.35
2022-11-12T02:29:01.753Z,48.09
2022-11-12T02:30:04.411Z,43.09
2022-11-12T02:31:06.870Z,42.01
2022-11-12T02:32:09.241Z,44.48
2022-11-12T02:33:11.731Z,43.48
2022-11-12T02:34:14.195Z,45.36
2022-11-12T02:35:16.656Z,46.16
2022-11-12T02:36:19.543Z,43.11
2022-11-12T02:37:21.981Z,48.97
2022-11-12T02:38:24.729Z,48.97
2022-11-12T02:39:27.576Z,50.35
2022-11-12T02:40:30.540Z,46.29
2022-11-12T02:41:33.003Z,45.94
2022-11-12T02:42:35.467Z,49.52
2022-11-12T02:43:37.902Z,44.89
2022-11-12T02:44:40.335Z,46.11
2022-11-12T02:45:42.812Z,50.33
2022-11-12T02:46:45.664Z,44.21
2022-11-12T02:47:48.116Z,48.51
2022-11-12T02:48:50.524Z,48.40
2022-11-12T02:49:52.885Z,45.03
2022-11-12T02:50:55.341Z,55.33
2022-11-12T02:51:57.794Z,46.58
2022-11-12T02:53:00.149Z,45.94
2022-11-12T02:54:02.547Z,46.74
2022-11-12T02:55:05.014Z,46.29
2022-11-12T02:56:08.799Z,42.55
2022-11-12T02:57:11.149Z,43.95
2022-11-12T02:58:13.518Z,44.06
2022-11-12T02:59:15.917Z,46.76
2022-11-12T03:00:18.784Z,48.23
2022-11-12T03:01:21.312Z,40.60
2022-11-12T03:02:23.792Z,42.41
2022-11-12T03:03:26.250Z,48.03
2022-11-12T03:04:28.649Z,84.51
2022-11-12T03:05:31.006Z,46.41
2022-11-12T03:06:33.479Z,41.29
2022-11-12T03:07:35.926Z,45.15
2022-11-12T03:08:38.286Z,52.72
2022-11-12T03:09:40.777Z,45.17
2022-11-12T03:10:43.338Z,44.14
2022-11-12T03:11:45.794Z,44.52
2022-11-12T03:12:48.161Z,48.65
2022-11-12T03:13:50.570Z,44.68
2022-11-12T03:14:53.251Z,51.79
2022-11-12T03:15:55.603Z,50.17
2022-11-12T03:16:58.158Z,39.15
2022-11-12T03:18:00.517Z,44.95
2022-11-12T03:19:03.046Z,47.11
2022-11-12T03:20:05.655Z,45.33
2022-11-12T03:21:08.016Z,44.49
2022-11-12T03:22:10.479Z,45.13
2022-11-12T03:23:12.951Z,52.67
2022-11-12T03:24:15.410Z,45.73
2022-11-12T03:25:17.903Z,45.96
2022-11-12T03:26:20.557Z,47.37
2022-11-12T03:27:22.914Z,45.80
2022-11-12T03:28:25.734Z,41.76
2022-11-12T03:29:28.329Z,45.68
2022-11-12T03:30:31.013Z,42.49
2022-11-12T03:31:33.484Z,42.31
2022-11-12T03:32:35.841Z,43.43
2022-11-12T03:33:38.207Z,45.03
2022-11-12T03:34:40.671Z,48.04
2022-11-12T03:35:43.058Z,46.27
2022-11-12T03:36:45.717Z,37.71
2022-11-12T03:37:48.071Z,44.21
2022-11-12T03:38:50.426Z,48.76
2022-11-12T03:39:52.795Z,46.61
2022-11-12T03:40:55.313Z,45.30
2022-11-12T03:41:57.669Z,42.29
2022-11-12T03:43:00.028Z,47.63
2022-11-12T03:44:02.484Z,45.44
2022-11-12T03:45:04.860Z,47.56
2022-11-12T03:46:07.936Z,48.40
2022-11-12T03:47:10.405Z,46.09
2022-11-12T03:48:12.773Z,46.55
2022-11-12T03:49:15.130Z,38.48
2022-11-12T03:50:17.989Z,45.06
2022-11-12T03:51:20.383Z,41.26
2022-11-12T03:52:22.736Z,43.92
2022-11-12T03:53:25.094Z,43.32
2022-11-12T03:54:27.451Z,43.97
2022-11-12T03:55:29.810Z,36.18
2022-11-12T03:56:32.223Z,39.20
2022-11-12T03:57:34.577Z,42.61
2022-11-12T03:58:36.942Z,43.94
2022-11-12T03:59:39.415Z,37.44
2022-11-12T04:00:41.977Z,39.58
2022-11-12T04:01:44.386Z,39.33
2022-11-12T04:02:46.739Z,33.58
2022-11-12T04:03:49.091Z,34.46
2022-11-12T04:04:51.449Z,34.92
2022-11-12T04:05:53.903Z,29.90
2022-11-12T04:06:56.861Z,33.33
2022-11-12T04:07:59.350Z,29.19
2022-11-12T04:09:01.805Z,30.61
2022-11-12T04:10:04.463Z,32.67
2022-11-12T04:11:06.818Z,28.82
2022-11-12T04:12:09.220Z,29.22
2022-11-12T04:13:11.689Z,26.75
2022-11-12T04:14:14.142Z,26.11
2022-11-12T04:15:16.589Z,29.76
2022-11-12T04:16:19.588Z,34.43
2022-11-12T04:17:21.978Z,26.36
2022-11-12T04:18:24.601Z,24.33
2022-11-12T04:19:27.499Z,26.59
2022-11-12T04:20:30.152Z,29.58
2022-11-12T04:21:32.504Z,29.59
2022-11-12T04:22:34.909Z,27.72
2022-11-12T04:23:37.271Z,30.79
2022-11-12T04:24:39.741Z,33.65
2022-11-12T04:25:42.203Z,28.79
2022-11-12T04:26:44.658Z,30.38
2022-11-12T04:27:47.051Z,21.95
2022-11-12T04:28:49.523Z,27.38
2022-11-12T04:29:51.882Z,27.83
2022-11-12T04:30:54.439Z,24.94
2022-11-12T04:31:56.838Z,23.01
2022-11-12T04:32:59.282Z,24.06
2022-11-12T04:34:01.730Z,27.28
2022-11-12T04:35:04.149Z,30.48
2022-11-12T04:36:07.466Z,33.98
2022-11-12T04:37:09.833Z,30.44
2022-11-12T04:38:12.317Z,29.93
2022-11-12T04:39:15.075Z,29.81
2022-11-12T04:40:17.843Z,28.23
2022-11-12T04:41:20.297Z,31.11
2022-11-12T04:42:22.666Z,27.95
2022-11-12T04:43:25.165Z,28.69
2022-11-12T04:44:27.536Z,29.12
2022-11-12T04:45:29.886Z,26.09
2022-11-12T04:46:32.646Z,32.32
2022-11-12T04:47:35.109Z,33.44
2022-11-12T04:48:37.499Z,31.23
2022-11-12T04:49:39.860Z,34.21
2022-11-12T04:50:42.416Z,31.25
2022-11-12T04:51:44.765Z,24.93
2022-11-12T04:52:47.123Z,30.66
2022-11-12T04:53:49.619Z,22.23
2022-11-12T04:54:51.981Z,24.70
2022-11-12T04:55:54.444Z,24.23
2022-11-12T04:56:57.211Z,28.87
2022-11-12T04:58:00.960Z,25.61
2022-11-12T04:59:03.816Z,28.99
2022-11-12T05:00:06.478Z,25.79
2022-11-12T05:01:09.060Z,27.26
2022-11-12T05:02:12.417Z,24.59
2022-11-12T05:03:14.882Z,26.73
2022-11-12T05:04:17.319Z,23.00
2022-11-12T05:05:19.754Z,22.75
2022-11-12T05:06:22.413Z,27.69
2022-11-12T05:07:24.775Z,25.49
2022-11-12T05:08:27.533Z,25.93
2022-11-12T05:09:30.590Z,21.63
2022-11-12T05:10:33.178Z,29.14
2022-11-12T05:11:35.700Z,26.12
2022-11-12T05:12:38.166Z,26.89
2022-11-12T05:13:40.631Z,20.98
2022-11-12T05:14:43.148Z,23.25
2022-11-12T05:15:45.627Z,25.65
2022-11-12T05:16:48.191Z,26.57
2022-11-12T05:17:50.563Z,31.75
2022-11-12T05:18:53.026Z,34.67
2022-11-12T05:19:55.517Z,23.78
2022-11-12T05:20:58.292Z,34.27
2022-11-12T05:22:00.761Z,22.62
2022-11-12T05:23:07.633Z,26.65
2022-11-12T05:24:07.500Z,17.15
2022-11-12T05:25:09.906Z,28.11
2022-11-12T05:26:12.885Z,25.24
2022-11-12T05:27:15.343Z,27.53
2022-11-12T05:28:17.794Z,23.54
2022-11-12T05:29:20.168Z,27.39
2022-11-12T05:30:22.973Z,39.42
2022-11-12T05:31:25.438Z,31.13
2022-11-12T05:32:27.805Z,34.80
2022-11-12T05:33:30.163Z,31.54
2022-11-12T05:34:32.525Z,28.02
2022-11-12T05:35:34.973Z,27.28
2022-11-12T05:36:37.648Z,28.23
2022-11-12T05:37:40.023Z,22.93
2022-11-12T05:38:42.476Z,28.30
2022-11-12T05:39:44.936Z,26.41
2022-11-12T05:40:47.738Z,23.38
2022-11-12T05:42:11.755Z,29.71
2022-11-12T05:42:54.379Z,28.74
2022-11-12T05:43:56.841Z,28.08
2022-11-12T05:44:59.222Z,25.95
2022-11-12T05:46:01.720Z,26.54
2022-11-12T05:47:04.152Z,27.95
2022-11-12T05:48:06.563Z,27.89
2022-11-12T05:49:09.034Z,31.63
2022-11-12T05:50:13.018Z,23.98
2022-11-12T05:51:15.524Z,25.27
2022-11-12T05:52:17.885Z,25.34
2022-11-12T05:53:20.343Z,24.85
2022-11-12T05:54:22.805Z,22.56
2022-11-12T05:55:25.623Z,22.17
2022-11-12T05:56:28.121Z,25.33
2022-11-12T05:57:30.484Z,25.37
2022-11-12T05:58:32.850Z,21.57
2022-11-12T05:59:35.215Z,20.77
2022-11-12T06:00:37.907Z,21.56
2022-11-12T06:01:40.367Z,22.07
2022-11-12T06:02:43.225Z,21.33
2022-11-12T06:03:45.908Z,22.79
2022-11-12T06:04:48.436Z,25.27
2022-11-12T06:05:50.847Z,24.47
2022-11-12T06:06:53.617Z,19.56
2022-11-12T06:07:56.380Z,24.28
2022-11-12T06:08:58.852Z,21.65
2022-11-12T06:10:01.315Z,35.61
2022-11-12T06:11:03.784Z,21.15
2022-11-12T06:12:06.347Z,23.88
2022-11-12T06:13:08.776Z,20.51
2022-11-12T06:14:11.235Z,24.75
2022-11-12T06:15:13.743Z,26.29
2022-11-12T06:16:16.390Z,30.07
2022-11-12T06:17:18.894Z,30.90
2022-11-12T06:18:21.357Z,31.65
2022-11-12T06:19:23.841Z,21.79
2022-11-12T06:20:26.408Z,25.57
2022-11-12T06:21:28.804Z,23.86
2022-11-12T06:22:32.227Z,26.91
2022-11-12T06:23:34.859Z,28.93
2022-11-12T06:24:37.233Z,25.65
2022-11-12T06:25:39.605Z,25.55
2022-11-12T06:26:42.063Z,28.33
2022-11-12T06:27:44.560Z,26.03
2022-11-12T06:28:47.075Z,25.54
2022-11-12T06:29:49.485Z,28.72
2022-11-12T06:30:52.146Z,25.38
2022-11-12T06:31:54.604Z,27.08
2022-11-12T06:32:57.131Z,24.52
2022-11-12T06:33:59.590Z,29.33
2022-11-12T06:35:01.955Z,29.35
2022-11-12T06:36:04.622Z,28.66
2022-11-12T06:37:07.201Z,23.76
2022-11-12T06:38:09.727Z,27.21
2022-11-12T06:39:12.226Z,22.45
2022-11-12T06:40:15.335Z,26.45
2022-11-12T06:41:17.799Z,25.74
2022-11-12T06:42:20.260Z,24.79
2022-11-12T06:43:24.485Z,21.39
2022-11-12T06:44:26.980Z,26.18
2022-11-12T06:45:29.494Z,29.17
2022-11-12T06:46:32.560Z,19.73
2022-11-12T06:47:35.032Z,30.88
2022-11-12T06:48:37.868Z,27.65
2022-11-12T06:49:40.330Z,32.73
2022-11-12T06:50:42.902Z,22.22
2022-11-12T06:51:45.374Z,23.59
2022-11-12T06:52:47.859Z,22.42
2022-11-12T06:53:50.427Z,26.17
2022-11-12T06:54:52.958Z,25.26
2022-11-12T06:55:55.320Z,27.29
2022-11-12T06:56:57.723Z,24.16
2022-11-12T06:58:00.195Z,28.19
2022-11-12T06:59:02.794Z,28.10
2022-11-12T07:00:06.361Z,27.76
2022-11-12T07:01:11.923Z,29.69
2022-11-12T07:02:15.043Z,23.41
2022-11-12T07:03:17.710Z,26.23
2022-11-12T07:04:20.474Z,21.59
2022-11-12T07:05:22.857Z,21.79
2022-11-12T07:06:25.653Z,30.27
2022-11-12T07:07:28.309Z,27.25
2022-11-12T07:08:31.389Z,17.02
2022-11-12T07:09:33.939Z,26.96
2022-11-12T07:10:36.739Z,25.11
2022-11-12T07:11:39.332Z,25.90
2022-11-12T07:12:41.779Z,25.61
2022-11-12T07:13:44.280Z,30.45
2022-11-12T07:14:46.895Z,27.13
2022-11-12T07:15:49.356Z,22.97
2022-11-12T07:16:52.454Z,31.33
2022-11-12T07:17:54.930Z,31.07
2022-11-12T07:18:57.287Z,34.09
2022-11-12T07:20:03.676Z,33.09
2022-11-12T07:21:04.241Z,16.90
2022-11-12T07:22:06.603Z,24.77
2022-11-12T07:23:08.960Z,26.45
2022-11-12T07:24:11.317Z,25.41
2022-11-12T07:25:13.740Z,25.95
2022-11-12T07:26:16.702Z,26.26
2022-11-12T07:27:19.058Z,16.01
2022-11-12T07:28:22.538Z,28.01
2022-11-12T07:29:46.515Z,26.87
2022-11-12T07:30:29.728Z,27.25
2022-11-12T07:31:32.316Z,27.71
2022-11-12T07:32:40.121Z,21.53
2022-11-12T07:33:39.024Z,28.79
2022-11-12T07:34:41.426Z,26.21
2022-11-12T07:35:44.660Z,34.18
2022-11-12T07:36:47.507Z,30.26
2022-11-12T07:37:53.730Z,25.64
2022-11-12T07:38:56.063Z,27.51
2022-11-12T07:39:58.529Z,26.46
2022-11-12T07:41:01.273Z,26.85
2022-11-12T07:42:03.720Z,27.98
2022-11-12T07:43:06.231Z,28.26
2022-11-12T07:44:08.686Z,27.97
2022-11-12T07:45:11.045Z,24.46
2022-11-12T07:46:15.574Z,24.52
2022-11-12T07:47:18.034Z,27.15
2022-11-12T07:48:20.497Z,31.31
2022-11-12T07:49:22.853Z,26.65
2022-11-12T07:50:25.507Z,31.80
2022-11-12T07:51:28.145Z,29.49
2022-11-12T07:52:30.512Z,26.01
2022-11-12T07:53:32.968Z,27.36
2022-11-12T07:54:35.331Z,20.27
2022-11-12T07:55:37.683Z,25.83
2022-11-12T07:56:40.304Z,27.91
2022-11-12T07:57:42.663Z,28.27
2022-11-12T07:58:45.113Z,27.11
2022-11-12T07:59:47.469Z,25.63
2022-11-12T08:00:50.054Z,33.11
2022-11-12T08:01:52.626Z,28.76
2022-11-12T08:02:55.409Z,24.91
2022-11-12T08:03:57.866Z,26.39
2022-11-12T08:05:00.331Z,28.27
2022-11-12T08:06:02.792Z,28.11
2022-11-12T08:07:05.381Z,29.25
2022-11-12T08:08:08.235Z,21.22
2022-11-12T08:09:10.779Z,22.97
2022-11-12T08:10:13.753Z,22.82
2022-11-12T08:11:16.128Z,21.99
2022-11-12T08:12:18.623Z,15.64
2022-11-12T08:13:20.976Z,24.01
2022-11-12T08:14:23.332Z,23.90
2022-11-12T08:15:25.692Z,22.83
2022-11-12T08:16:28.245Z,22.34
2022-11-12T08:17:30.886Z,22.01
2022-11-12T08:18:33.249Z,26.57
2022-11-12T08:19:35.712Z,23.23
2022-11-12T08:20:38.570Z,24.31
2022-11-12T08:21:40.922Z,24.01
2022-11-12T08:22:48.910Z,25.17
2022-11-12T08:23:47.598Z,23.75
2022-11-12T08:24:49.962Z,23.00
2022-11-12T08:25:52.325Z,22.89
2022-11-12T08:26:54.878Z,19.23
2022-11-12T08:27:57.278Z,25.25
2022-11-12T08:29:03.967Z,23.45
2022-11-12T08:30:04.207Z,24.74
2022-11-12T08:31:06.560Z,26.75
2022-11-12T08:32:09.030Z,18.42
2022-11-12T08:33:11.502Z,19.83
2022-11-12T08:34:17.439Z,21.83
2022-11-12T08:35:18.427Z,23.78
2022-11-12T08:36:21.082Z,25.10
2022-11-12T08:37:23.444Z,15.76
2022-11-12T08:38:26.299Z,21.17
2022-11-12T08:39:29.130Z,18.13
2022-11-12T08:40:31.780Z,21.62
2022-11-12T08:41:34.137Z,16.73
2022-11-12T08:42:36.683Z,19.83
2022-11-12T08:43:39.194Z,22.67
2022-11-12T08:44:41.665Z,22.54
2022-11-12T08:45:44.023Z,25.53
2022-11-12T08:46:46.580Z,19.59
2022-11-12T08:47:48.935Z,23.77
2022-11-12T08:48:51.423Z,28.97
2022-11-12T08:49:53.777Z,28.67
2022-11-12T08:50:56.241Z,22.51
2022-11-12T08:51:58.699Z,24.20
2022-11-12T08:53:01.051Z,27.54
2022-11-12T08:54:03.488Z,22.48
2022-11-12T08:55:05.938Z,21.39
2022-11-12T08:56:08.996Z,17.82
2022-11-12T08:57:11.351Z,14.33
2022-11-12T08:58:13.708Z,15.37
2022-11-12T08:59:16.441Z,16.64
2022-11-12T09:00:19.097Z,20.83
2022-11-12T09:01:21.518Z,21.67
2022-11-12T09:02:24.109Z,24.82
2022-11-12T09:03:26.469Z,18.25
2022-11-12T09:04:28.868Z,22.31
2022-11-12T09:05:31.373Z,26.27
2022-11-12T09:06:33.842Z,24.69
2022-11-12T09:07:49.477Z,23.13
2022-11-12T09:08:40.568Z,20.85
2022-11-12T09:09:43.365Z,27.48
2022-11-12T09:10:45.840Z,23.51
2022-11-12T09:11:48.307Z,23.67
2022-11-12T09:12:50.757Z,23.24
2022-11-12T09:13:53.125Z,21.49
2022-11-12T09:14:59.532Z,21.20
2022-11-12T09:16:00.091Z,24.98
2022-11-12T09:17:02.540Z,28.10
2022-11-12T09:18:04.897Z,22.51
2022-11-12T09:19:07.255Z,20.71
2022-11-12T09:20:10.513Z,25.36
2022-11-12T09:21:12.971Z,27.13
2022-11-12T09:22:15.324Z,25.67
2022-11-12T09:23:17.695Z,22.67
2022-11-12T09:24:20.158Z,15.79
2022-11-12T09:25:22.565Z,16.45
2022-11-12T09:26:25.229Z,20.83
2022-11-12T09:27:27.690Z,32.39
2022-11-12T09:28:30.055Z,16.11
2022-11-12T09:29:32.419Z,18.61
2022-11-12T09:30:35.330Z,22.52
2022-11-12T09:31:37.788Z,16.95
2022-11-12T09:32:40.250Z,19.86
2022-11-12T09:33:42.628Z,19.03
2022-11-12T09:34:45.078Z,16.95
2022-11-12T09:35:47.586Z,16.71
2022-11-12T09:36:50.371Z,13.69
2022-11-12T09:37:52.734Z,17.41
2022-11-12T09:38:55.098Z,15.61
2022-11-12T09:39:57.571Z,15.87
2022-11-12T09:41:00.495Z,12.20
2022-11-12T09:42:02.952Z,16.74
2022-11-12T09:43:05.332Z,17.70
2022-11-12T09:45:29.703Z,16.57
2022-11-12T09:46:32.495Z,18.02
2022-11-12T09:47:34.950Z,21.90
2022-11-12T09:48:37.311Z,14.84
2022-11-12T09:49:39.792Z,12.03
2022-11-12T09:50:42.551Z,16.12
2022-11-12T09:51:45.043Z,13.59
2022-11-12T09:52:47.501Z,16.80
2022-11-12T09:53:49.858Z,18.65
2022-11-12T09:54:52.245Z,19.01
2022-11-12T09:55:54.611Z,5.29
2022-11-12T09:56:57.460Z,15.29
2022-11-12T09:57:59.889Z,18.85
2022-11-12T09:59:02.359Z,18.67
2022-11-12T10:00:05.016Z,14.21
2022-11-12T10:01:07.482Z,17.43
2022-11-12T10:02:10.015Z,19.48
2022-11-12T10:03:12.477Z,18.31
2022-11-12T10:04:14.953Z,16.29
2022-11-12T10:05:17.409Z,15.17
2022-11-12T10:06:20.174Z,18.57
2022-11-12T10:07:22.572Z,16.16
2022-11-12T10:08:25.345Z,22.23
2022-11-12T10:09:29.007Z,17.66
2022-11-12T10:10:31.466Z,16.69
2022-11-12T10:11:33.939Z,11.41
2022-11-12T10:12:36.439Z,14.73
2022-11-12T10:13:38.910Z,13.46
2022-11-12T10:14:41.387Z,15.35
2022-11-12T10:15:43.992Z,11.19
2022-11-12T10:16:46.551Z,18.24
2022-11-12T10:17:49.058Z,14.93
2022-11-12T10:18:51.596Z,17.65
2022-11-12T10:19:54.033Z,16.95
2022-11-12T10:20:56.594Z,13.62
2022-11-12T10:21:59.075Z,13.43
2022-11-12T10:23:01.846Z,13.97
2022-11-12T10:24:04.339Z,14.73
2022-11-12T10:25:07.022Z,9.45
2022-11-12T10:26:09.978Z,19.26
2022-11-12T10:27:12.720Z,17.11
2022-11-12T10:28:15.209Z,18.14
2022-11-12T10:29:17.692Z,13.78
2022-11-12T10:30:20.350Z,14.04
2022-11-12T10:31:22.707Z,14.19
2022-11-12T10:32:25.068Z,13.66
2022-11-12T10:33:27.490Z,13.63
2022-11-12T10:34:29.851Z,19.55
2022-11-12T10:35:32.218Z,16.39
2022-11-12T10:36:35.104Z,14.13
2022-11-12T10:37:37.565Z,15.97
2022-11-12T10:38:40.029Z,11.52
2022-11-12T10:39:42.462Z,11.64
2022-11-12T10:40:45.124Z,22.19
2022-11-12T10:41:47.588Z,16.20
2022-11-12T10:42:50.047Z,16.11
2022-11-12T10:43:52.448Z,7.57
2022-11-12T10:44:54.989Z,13.61
2022-11-12T10:45:57.404Z,11.21
2022-11-12T10:46:59.972Z,17.19
2022-11-12T10:48:02.357Z,18.87
2022-11-12T10:49:04.916Z,12.35
2022-11-12T10:50:08.063Z,13.04
2022-11-12T10:51:10.537Z,13.25
2022-11-12T10:52:12.993Z,10.74
2022-11-12T10:53:15.454Z,10.98
2022-11-12T10:54:17.952Z,13.01
2022-11-12T10:55:20.313Z,13.49
2022-11-12T10:56:23.078Z,9.49
2022-11-12T10:57:25.442Z,14.38
2022-11-12T10:58:28.302Z,10.81
2022-11-12T10:59:31.340Z,6.27
2022-11-12T11:00:33.994Z,15.12
2022-11-12T11:01:39.414Z,9.71
2022-11-12T11:02:40.733Z,10.31
2022-11-12T11:03:45.653Z,8.42
2022-11-12T11:04:48.578Z,9.37
2022-11-12T11:05:51.049Z,6.17
2022-11-12T11:06:53.745Z,11.05
2022-11-12T11:07:56.174Z,10.36
2022-11-12T11:08:58.636Z,15.71
2022-11-12T11:10:01.143Z,9.17
2022-11-12T11:11:03.607Z,10.55
2022-11-12T11:12:06.079Z,13.08
2022-11-12T11:13:08.541Z,16.47
2022-11-12T11:14:10.902Z,15.58
2022-11-12T11:15:13.296Z,13.73
2022-11-12T11:16:15.955Z,21.91
2022-11-12T11:17:18.420Z,55.64
2022-11-12T11:18:20.883Z,19.29
2022-11-12T11:19:23.262Z,14.25
2022-11-12T11:20:26.066Z,10.01
2022-11-12T11:21:28.529Z,14.05
2022-11-12T11:22:31.294Z,13.24
2022-11-12T11:23:33.656Z,18.49
2022-11-12T11:24:36.131Z,15.83
2022-11-12T11:25:38.884Z,14.96
2022-11-12T11:26:41.347Z,10.61
2022-11-12T11:27:43.707Z,9.80
2022-11-12T11:28:46.095Z,9.19
2022-11-12T11:29:48.692Z,17.73
2022-11-12T11:30:51.506Z,11.12
2022-11-12T11:31:53.974Z,13.90
2022-11-12T11:32:56.438Z,10.60
2022-11-12T11:33:58.905Z,15.10
2022-11-12T11:35:01.365Z,14.49
2022-11-12T11:36:04.212Z,9.92
2022-11-12T11:37:06.571Z,15.89
2022-11-12T11:38:09.026Z,10.45
2022-11-12T11:39:11.387Z,15.02
2022-11-12T11:40:15.180Z,14.19
2022-11-12T11:41:17.675Z,19.94
2022-11-12T11:42:20.067Z,13.33
2022-11-12T11:43:22.527Z,10.23
2022-11-12T11:44:24.971Z,13.70
2022-11-12T11:45:27.651Z,15.34
2022-11-12T11:46:30.255Z,16.44
2022-11-12T11:47:50.361Z,14.89
2022-11-12T11:48:36.891Z,12.12
2022-11-12T11:49:39.257Z,11.19
2022-11-12T11:50:41.814Z,11.44
2022-11-12T11:51:44.317Z,11.95
2022-11-12T11:52:46.802Z,8.28
2022-11-12T11:53:49.272Z,10.48
2022-11-12T11:54:51.631Z,6.51
2022-11-12T11:55:53.997Z,12.24
2022-11-12T11:56:56.709Z,8.68
2022-11-12T11:57:59.071Z,11.49
2022-11-12T11:59:01.447Z,10.91
2022-11-12T12:00:04.020Z,7.34
2022-11-12T12:01:06.674Z,10.37
2022-11-12T12:02:09.067Z,9.21
2022-11-12T12:03:11.520Z,11.65
2022-11-12T12:04:14.080Z,9.71
2022-11-12T12:05:16.536Z,8.12
2022-11-12T12:06:19.093Z,16.94
2022-11-12T12:07:21.705Z,14.45
2022-11-12T12:08:24.640Z,15.48
2022-11-12T12:09:27.560Z,10.31
2022-11-12T12:10:46.685Z,12.04
2022-11-12T12:11:34.394Z,11.66
2022-11-12T12:12:36.797Z,8.59
2022-11-12T12:13:39.246Z,10.55
2022-11-12T12:14:41.599Z,12.47
2022-11-12T12:15:43.977Z,9.66
2022-11-12T12:16:46.727Z,14.58
2022-11-12T12:17:49.161Z,12.43
2022-11-12T12:18:51.628Z,14.55
2022-11-12T12:19:54.002Z,12.40
2022-11-12T12:20:56.460Z,12.28
2022-11-12T12:21:58.825Z,11.70
2022-11-12T12:23:01.322Z,18.47
2022-11-12T12:24:03.680Z,8.89
2022-11-12T12:25:06.236Z,10.97
2022-11-12T12:26:10.528Z,10.57
2022-11-12T12:27:12.885Z,14.54
2022-11-12T12:28:15.308Z,12.27
2022-11-12T12:29:17.664Z,17.84
2022-11-12T12:30:20.521Z,30.44
2022-11-12T12:31:22.898Z,19.28
2022-11-12T12:32:25.292Z,19.13
2022-11-12T12:33:27.764Z,14.93
2022-11-12T12:34:30.117Z,10.52
2022-11-12T12:35:32.473Z,12.48
2022-11-12T12:36:35.030Z,12.98
2022-11-12T12:37:37.486Z,15.06
2022-11-12T12:38:39.872Z,18.79
2022-11-12T12:39:47.529Z,11.24
2022-11-12T12:40:46.614Z,14.52
2022-11-12T12:41:49.081Z,17.87
2022-11-12T12:42:51.526Z,14.25
2022-11-12T12:43:53.912Z,20.91
2022-11-12T12:44:56.400Z,17.01
2022-11-12T12:45:58.750Z,18.89
2022-11-12T12:47:01.412Z,36.50
2022-11-12T12:48:03.772Z,42.09
2022-11-12T12:49:06.178Z,30.07
2022-11-12T12:50:09.039Z,43.89
2022-11-12T12:51:11.498Z,34.42
2022-11-12T12:52:13.868Z,18.87
2022-11-12T12:53:16.313Z,19.63
2022-11-12T12:54:19.964Z,14.21
2022-11-12T12:55:22.432Z,15.83
2022-11-12T12:56:25.096Z,12.11
2022-11-12T12:57:27.559Z,9.59
2022-11-12T12:58:30.393Z,10.50
2022-11-12T12:59:35.049Z,12.80
2022-11-12T13:00:37.690Z,12.39
2022-11-12T13:01:42.172Z,14.65
2022-11-12T13:02:44.664Z,9.79
2022-11-12T13:03:47.128Z,11.16
2022-11-12T13:04:49.613Z,9.31
2022-11-12T13:05:52.075Z,11.73
2022-11-12T13:06:54.885Z,11.55
2022-11-12T13:07:57.311Z,9.12
2022-11-12T13:08:59.686Z,13.38
2022-11-12T13:10:02.325Z,11.77
2022-11-12T13:11:04.686Z,12.34
2022-11-12T13:12:07.067Z,16.70
2022-11-12T13:13:09.524Z,16.25
2022-11-12T13:14:11.996Z,10.01
2022-11-12T13:15:14.484Z,14.03
2022-11-12T13:16:17.049Z,16.25
2022-11-12T13:17:19.515Z,14.10
2022-11-12T13:18:22.035Z,13.21
2022-11-12T13:19:24.466Z,13.48
2022-11-12T13:20:27.644Z,13.17
2022-11-12T13:21:30.012Z,15.29
2022-11-12T13:22:32.469Z,19.08
2022-11-12T13:23:34.927Z,11.32
2022-11-12T13:24:37.293Z,13.63
2022-11-12T13:25:39.787Z,11.78
2022-11-12T13:26:42.554Z,20.88
2022-11-12T13:27:45.016Z,22.95